Time;durP1;ratioP1;P1;durP2;ratioP2;P2;SDS_P1;SDS_P2;PMS_P1;PMS_P2;Temp;Humidity;BMP_temperature;BMP_pressure;BME280_temperature;BME280_humidity;BME280_pressure;Samples;Min_cycle;Max_cycle;Signal;HPM_P1;HPM_P2
2024/01/10 00:01:20;;;;;;;47.90;25.13;;;-8.40;99.90;;;-141.84;83.33;18531.63;5042715;28;20528;-61
2024/01/10 00:03:49;;;;;;;47.33;26.30;;;-8.40;99.90;;;-141.84;83.65;18578.38;5051025;28;20202;-61
2024/01/10 00:06:18;;;;;;;53.00;25.73;;;-8.40;99.90;;;-141.84;83.13;18582.44;5049033;28;20292;-62
2024/01/10 00:08:47;;;;;;;51.33;26.37;;;-8.30;99.90;;;-141.84;81.83;18436.16;5050745;28;20217;-61
2024/01/10 00:11:16;;;;;;;49.50;25.80;;;-8.30;99.90;;;-141.84;81.08;18399.56;5050608;28;20243;-61
2024/01/10 00:13:44;;;;;;;52.47;27.17;;;-8.20;99.90;;;-141.84;79.75;18365.03;5050284;28;20237;-61
2024/01/10 00:16:14;;;;;;;48.83;25.30;;;-8.10;99.90;;;-141.84;78.82;18344.72;5050636;28;20223;-60
2024/01/10 00:18:42;;;;;;;48.03;24.90;;;-8.10;99.90;;;-141.84;78.99;18369.09;5044800;28;20232;-60
2024/01/10 00:21:12;;;;;;;56.37;27.50;;;-8.10;99.90;;;-141.84;78.17;18308.16;5049968;28;20213;-61
2024/01/10 00:23:42;;;;;;;48.90;25.60;;;-8.10;99.90;;;-141.84;78.73;18332.53;5050230;28;20250;-61
2024/01/10 00:26:09;;;;;;;50.00;26.20;;;-8.20;99.90;;;-141.84;79.05;18346.75;5050113;28;20234;-62
2024/01/10 00:28:37;;;;;;;49.90;26.90;;;-8.20;99.90;;;-141.84;78.32;18306.13;5050306;28;20235;-60
2024/01/10 00:31:06;;;;;;;49.87;26.03;;;-8.10;99.90;;;-141.84;77.62;18312.22;5050554;28;20749;-60
2024/01/10 00:33:34;;;;;;;51.10;25.73;;;-8.00;99.90;;;-141.84;77.62;18304.09;5049510;28;20245;-60
2024/01/10 00:36:03;;;;;;;50.27;24.97;;;-7.90;99.90;;;-141.84;78.35;18320.34;5049622;28;20720;-60
2024/01/10 00:38:31;;;;;;;52.17;26.50;;;-8.10;99.90;;;-141.84;78.09;18334.56;5049773;28;20225;-61
2024/01/10 00:41:01;;;;;;;52.73;27.23;;;-8.10;99.90;;;-141.84;77.71;18316.28;5049790;28;20738;-60
2024/01/10 00:43:29;;;;;;;49.43;25.50;;;-8.10;99.90;;;-141.84;77.15;18344.72;5050117;28;20237;-61
2024/01/10 00:45:57;;;;;;;53.70;26.77;;;-8.10;99.90;;;-141.84;77.73;18338.63;5050825;28;20288;-61
2024/01/10 00:48:25;;;;;;;47.70;25.03;;;-8.20;99.90;;;-141.84;77.38;18330.50;5049858;28;20257;-61
2024/01/10 00:50:54;;;;;;;47.10;25.97;;;-8.10;99.90;;;-141.84;76.72;18320.34;5049951;28;20232;-60
2024/01/10 00:53:22;;;;;;;48.67;25.27;;;-8.10;99.90;;;-141.84;76.51;18306.13;5050019;28;20231;-60
2024/01/10 00:55:50;;;;;;;51.17;25.73;;;-8.10;99.90;;;-141.84;76.66;18302.06;5050314;28;20641;-61
2024/01/10 00:58:20;;;;;;;49.73;26.80;;;-8.20;99.90;;;-141.84;78.18;18352.84;5050272;28;20240;-60
2024/01/10 01:00:48;;;;;;;49.00;25.50;;;-8.30;99.90;;;-141.84;79.22;18383.31;5050391;28;20717;-60
2024/01/10 01:03:17;;;;;;;58.77;28.43;;;-8.30;99.90;;;-141.84;80.26;18395.50;5049636;28;20244;-60
2024/01/10 01:05:45;;;;;;;52.33;26.73;;;-8.40;99.90;;;-141.84;80.82;18397.53;5049677;28;20221;-61
2024/01/10 01:08:14;;;;;;;50.30;28.37;;;-8.50;99.90;;;-141.84;81.59;18409.72;5050098;28;20241;-61
2024/01/10 01:10:42;;;;;;;48.37;25.40;;;-8.60;99.90;;;-141.84;82.63;18493.03;5050095;28;20241;-61
2024/01/10 01:13:11;;;;;;;52.20;26.40;;;-8.60;99.90;;;-141.84;83.29;18535.69;5049854;28;20803;-61
2024/01/10 01:15:40;;;;;;;47.43;25.33;;;-8.60;99.90;;;-141.84;83.17;18570.22;5050574;28;20201;-61
2024/01/10 01:18:09;;;;;;;46.77;26.73;;;-8.60;99.90;;;-141.84;83.17;18501.16;5051057;28;20222;-62
2024/01/10 01:20:38;;;;;;;49.00;26.43;;;-8.60;99.90;;;-141.84;83.93;18584.47;5053264;28;20270;-61
2024/01/10 01:23:06;;;;;;;47.80;26.13;;;-8.60;99.90;;;-141.84;84.60;18612.91;5052900;28;20319;-60
2024/01/10 01:25:35;;;;;;;52.13;27.20;;;-8.60;99.90;;;-141.84;84.97;18688.06;5053383;28;20248;-61
2024/01/10 01:28:03;;;;;;;52.13;26.40;;;-8.70;99.90;;;-141.84;84.81;18724.66;5053894;28;20252;-60
2024/01/10 01:30:31;;;;;;;46.77;25.83;;;-8.70;99.90;;;-141.84;85.29;18761.22;5046815;28;20289;-61
2024/01/10 01:33:03;;;;;;;51.47;26.07;;;-8.70;99.90;;;-141.84;85.67;18816.06;5052886;28;20220;-61
2024/01/10 01:35:32;;;;;;;54.93;26.70;;;-8.70;99.90;;;-141.84;86.12;18950.19;5052782;28;20234;-60
2024/01/10 01:38:00;;;;;;;50.60;27.43;;;-8.70;99.90;;;-141.84;86.40;18925.81;5053028;28;20229;-61
2024/01/10 01:40:28;;;;;;;47.40;24.63;;;-8.80;99.90;;;-141.84;86.34;18978.63;5052919;28;20227;-60
2024/01/10 01:42:56;;;;;;;50.90;25.83;;;-8.80;99.90;;;-141.84;86.51;19039.59;5053526;28;20269;-60
2024/01/10 01:45:25;;;;;;;48.50;27.10;;;-8.80;99.90;;;-141.84;86.36;18964.41;5044808;28;20625;-61
2024/01/10 01:47:53;;;;;;;51.13;25.27;;;-8.70;99.90;;;-141.84;85.86;19000.97;5052639;28;20770;-61
2024/01/10 01:50:23;;;;;;;49.47;26.00;;;-8.80;99.90;;;-141.84;85.06;18749.03;5052684;28;20814;-61
2024/01/10 01:52:51;;;;;;;56.77;27.07;;;-8.70;99.90;;;-141.84;85.55;18781.53;5052800;28;20306;-60
2024/01/10 01:55:20;;;;;;;54.67;27.13;;;-8.80;99.90;;;-141.84;85.17;18775.44;5052951;28;20307;-61
2024/01/10 01:57:48;;;;;;;49.20;25.60;;;-8.80;99.90;;;-141.84;85.55;18736.84;5052957;28;20231;-61
2024/01/10 02:00:17;;;;;;;49.30;25.90;;;-8.80;99.90;;;-141.84;85.31;18736.84;5052797;28;20226;-61
2024/01/10 02:02:46;;;;;;;49.80;26.20;;;-8.80;99.90;;;-141.84;85.76;18826.25;5052513;28;20312;-61
2024/01/10 02:05:16;;;;;;;51.43;25.77;;;-8.90;99.90;;;-141.84;85.76;18828.28;5052516;28;20359;-60
2024/01/10 02:07:46;;;;;;;50.47;26.27;;;-8.90;99.90;;;-141.84;86.26;18879.06;5052483;28;20270;-61
2024/01/10 02:10:14;;;;;;;50.63;25.80;;;-8.90;99.90;;;-141.84;86.62;19000.97;5052853;28;20224;-60
2024/01/10 02:12:42;;;;;;;49.10;26.87;;;-8.90;99.90;;;-141.84;87.12;19173.69;5046681;28;20631;-61
2024/01/10 02:15:10;;;;;;;53.73;26.97;;;-9.00;99.90;;;-141.84;87.74;19378.94;5052419;28;20256;-61
2024/01/10 02:17:39;;;;;;;55.67;26.93;;;-9.00;99.90;;;-141.84;87.92;19649.22;5051744;28;20267;-61
2024/01/10 02:20:11;;;;;;;52.60;26.57;;;-9.00;99.90;;;-141.84;87.85;19565.91;5046640;28;20228;-61
2024/01/10 02:22:41;;;;;;;48.87;26.50;;;-9.00;99.90;;;-141.84;86.48;19061.94;5048104;28;20562;-61
2024/01/10 02:25:11;;;;;;;53.03;28.13;;;-8.90;99.90;;;-141.84;86.46;18996.91;5052211;28;20201;-60
2024/01/10 02:27:41;;;;;;;58.17;27.23;;;-8.90;99.90;;;-141.84;86.28;18946.13;5051480;28;20255;-61
2024/01/10 02:30:11;;;;;;;49.83;27.13;;;-9.00;99.90;;;-141.84;85.32;18779.50;5051033;28;20217;-61
2024/01/10 02:32:40;;;;;;;51.37;26.17;;;-8.90;99.90;;;-141.84;84.47;18578.38;5052294;28;20256;-61
2024/01/10 02:35:09;;;;;;;49.53;26.67;;;-8.90;99.90;;;-141.84;84.32;18539.75;5051773;28;20350;-60
2024/01/10 02:37:37;;;;;;;54.27;26.33;;;-8.90;99.90;;;-141.84;84.20;18539.75;5046850;28;20228;-60
2024/01/10 02:40:07;;;;;;;53.40;27.13;;;-8.90;99.90;;;-141.84;84.61;18533.66;5044167;28;20196;-60
2024/01/10 02:42:37;;;;;;;56.17;26.90;;;-9.00;99.90;;;-141.84;85.04;18612.91;5052359;28;20281;-61
2024/01/10 02:45:06;;;;;;;57.40;27.37;;;-9.00;99.90;;;-141.84;85.51;18716.53;5051749;28;20278;-61
2024/01/10 02:47:36;;;;;;;53.13;26.57;;;-9.00;99.90;;;-141.84;84.67;18594.63;5051705;28;20574;-60
2024/01/10 02:50:06;;;;;;;59.43;27.63;;;-9.00;99.90;;;-141.84;85.13;18635.25;5051880;28;20277;-59
2024/01/10 02:52:34;;;;;;;49.80;25.77;;;-9.00;99.90;;;-141.84;85.57;18706.38;5051925;28;20911;-62
2024/01/10 02:55:03;;;;;;;46.33;26.53;;;-9.00;99.90;;;-141.84;86.00;18789.66;5052116;28;20300;-61
2024/01/10 02:57:31;;;;;;;50.97;26.77;;;-9.10;99.90;;;-141.84;86.00;18897.34;5051597;28;20803;-61
2024/01/10 03:00:01;;;;;;;49.33;26.50;;;-9.10;99.90;;;-141.84;85.33;18777.47;5051221;28;20749;-61
2024/01/10 03:02:29;;;;;;;59.43;28.33;;;-9.10;99.90;;;-141.84;84.36;18564.13;5051630;28;20231;-60
2024/01/10 03:04:58;;;;;;;49.73;25.70;;;-9.10;99.90;;;-141.84;84.33;18541.78;5051073;28;20275;-60
2024/01/10 03:07:26;;;;;;;55.20;27.67;;;-9.00;99.90;;;-141.84;84.65;18572.25;5047457;28;20202;-61
2024/01/10 03:09:54;;;;;;;49.97;26.90;;;-9.10;99.90;;;-141.84;84.96;18610.88;5051688;28;20205;-62
2024/01/10 03:12:22;;;;;;;51.47;26.27;;;-9.10;99.90;;;-141.84;85.29;18679.94;5051330;28;20248;-61
2024/01/10 03:14:51;;;;;;;52.27;26.83;;;-9.10;99.90;;;-141.84;85.47;18671.81;5043329;28;20220;-61
2024/01/10 03:17:21;;;;;;;53.77;28.57;;;-9.10;99.90;;;-141.84;85.14;18677.91;5051353;28;20222;-61
2024/01/10 03:19:49;;;;;;;52.20;27.07;;;-9.10;99.90;;;-141.84;85.00;18633.22;5051153;28;20229;-61
2024/01/10 03:22:18;;;;;;;49.27;27.10;;;-9.10;99.90;;;-141.84;84.97;18651.50;5048132;28;20216;-61
2024/01/10 03:24:46;;;;;;;53.27;27.60;;;-9.10;99.90;;;-141.84;85.30;18679.94;5047768;28;20620;-61
2024/01/10 03:27:14;;;;;;;50.90;25.93;;;-9.20;99.90;;;-141.84;85.70;18704.31;5051003;28;20229;-61
2024/01/10 03:29:42;;;;;;;50.30;28.10;;;-9.20;99.90;;;-141.84;86.14;18852.66;5051061;28;20300;-62
2024/01/10 03:32:11;;;;;;;53.90;28.30;;;-9.20;99.90;;;-141.84;86.70;18950.19;5050974;28;20290;-61
2024/01/10 03:34:42;;;;;;;53.53;27.60;;;-9.20;99.90;;;-141.84;86.89;19037.56;5050486;28;20311;-61
2024/01/10 03:37:10;;;;;;;51.63;27.87;;;-9.30;99.90;;;-141.84;87.21;19163.53;5050887;28;20204;-60
2024/01/10 03:39:39;;;;;;;53.37;27.83;;;-9.30;99.90;;;-141.84;86.83;19143.22;5015488;28;20201;-61
2024/01/10 03:42:07;;;;;;;52.53;26.87;;;-9.20;99.90;;;-141.84;85.91;18828.28;5050293;28;20225;-61
2024/01/10 03:44:36;;;;;;;50.23;25.97;;;-9.20;99.90;;;-141.84;85.86;18812.00;5031364;28;20252;-61
2024/01/10 03:47:05;;;;;;;48.10;26.30;;;-9.20;99.90;;;-141.84;86.08;18787.63;5050574;28;20241;-60
2024/01/10 03:49:33;;;;;;;52.10;26.90;;;-9.30;99.90;;;-141.84;86.24;18891.25;5050585;28;20300;-60
2024/01/10 03:52:04;;;;;;;50.67;28.50;;;-9.30;99.90;;;-141.84;86.34;18962.38;5051093;28;20213;-61
2024/01/10 03:54:33;;;;;;;60.17;28.37;;;-9.20;99.90;;;-141.84;86.17;18903.44;5050414;28;20275;-61
2024/01/10 03:57:01;;;;;;;51.50;26.10;;;-9.20;99.90;;;-141.84;86.34;18940.03;5050483;28;20236;-61
2024/01/10 03:59:30;;;;;;;49.73;25.47;;;-9.20;99.90;;;-141.84;85.98;18842.50;5050411;28;20229;-59
2024/01/10 04:02:00;;;;;;;52.33;26.53;;;-9.20;99.90;;;-141.84;85.17;18753.09;5050511;28;20332;-61
2024/01/10 04:04:28;;;;;;;51.40;26.63;;;-9.10;99.90;;;-141.84;84.72;18633.22;5050416;28;20232;-60
2024/01/10 04:06:56;;;;;;;53.43;26.37;;;-9.10;99.90;;;-141.84;85.00;18614.94;5050913;28;20251;-60
2024/01/10 04:09:26;;;;;;;52.10;27.60;;;-9.10;99.90;;;-141.84;85.49;18684.00;5050521;28;20248;-60
2024/01/10 04:11:54;;;;;;;59.30;27.93;;;-9.10;99.90;;;-141.84;85.13;18673.84;5050575;28;20300;-60
2024/01/10 04:14:22;;;;;;;54.93;28.20;;;-9.10;99.90;;;-141.84;84.82;18627.13;5043301;28;20339;-60
2024/01/10 04:16:51;;;;;;;48.47;26.43;;;-9.10;99.90;;;-141.84;83.79;18509.28;5041953;28;20288;-60
2024/01/10 04:19:20;;;;;;;50.97;27.23;;;-9.10;99.90;;;-141.84;83.18;18379.25;5048282;28;20290;-60
2024/01/10 04:21:47;;;;;;;51.20;27.70;;;-9.10;99.90;;;-141.84;82.85;18401.59;5046739;28;20205;-61
2024/01/10 04:24:16;;;;;;;50.90;27.10;;;-9.20;99.90;;;-141.84;82.85;18403.63;5050558;28;20230;-61
2024/01/10 04:26:45;;;;;;;56.00;27.47;;;-9.20;99.90;;;-141.84;82.72;18393.47;5050505;28;20308;-60
2024/01/10 04:29:14;;;;;;;51.47;27.33;;;-9.20;99.90;;;-141.84;82.14;18371.13;5050205;28;20256;-60
2024/01/10 04:31:42;;;;;;;56.30;26.43;;;-9.10;99.90;;;-141.84;81.44;18332.53;5049950;28;20727;-59
2024/01/10 04:34:10;;;;;;;54.40;25.87;;;-9.20;99.90;;;-141.84;82.33;18346.75;5050144;28;20283;-60
2024/01/10 04:36:39;;;;;;;53.10;25.63;;;-9.30;99.90;;;-141.84;82.99;18415.81;5050502;28;20638;-61
2024/01/10 04:39:07;;;;;;;46.20;25.33;;;-9.30;99.90;;;-141.84;83.73;18444.28;5050098;28;20632;-61
2024/01/10 04:41:35;;;;;;;51.47;25.73;;;-9.30;99.90;;;-141.84;83.91;18480.84;5050033;28;20299;-61
2024/01/10 04:44:05;;;;;;;55.13;26.57;;;-9.30;99.90;;;-141.84;83.50;18460.53;5046994;28;20318;-61
2024/01/10 04:46:34;;;;;;;55.43;27.63;;;-9.40;99.90;;;-141.84;84.21;18478.81;5050122;28;20231;-61
2024/01/10 04:49:03;;;;;;;51.37;26.13;;;-9.40;99.90;;;-141.84;83.93;18491.00;5050959;28;20593;-61
2024/01/10 04:51:32;;;;;;;51.67;26.37;;;-9.40;99.90;;;-141.84;84.37;18501.16;5041696;28;20235;-61
2024/01/10 04:54:00;;;;;;;49.00;25.57;;;-9.40;99.90;;;-141.84;85.15;18612.91;5052942;28;20246;-61
2024/01/10 04:56:29;;;;;;;51.50;26.23;;;-9.40;99.90;;;-141.84;85.69;18679.94;5053602;28;20226;-60
2024/01/10 04:58:57;;;;;;;51.57;27.10;;;-9.50;99.90;;;-141.84;86.39;18793.72;5054022;28;20224;-60
2024/01/10 05:01:27;;;;;;;48.13;27.07;;;-9.50;99.90;;;-141.84;86.36;18891.25;5035082;28;20239;-59
2024/01/10 05:03:56;;;;;;;52.83;27.23;;;-9.50;99.90;;;-141.84;86.62;18984.72;5053816;28;20204;-61
2024/01/10 05:06:24;;;;;;;47.20;26.00;;;-9.40;99.90;;;-141.84;87.15;19078.19;5050140;28;20245;-59
2024/01/10 05:08:53;;;;;;;49.90;25.83;;;-9.40;99.90;;;-141.84;87.57;19220.44;5053421;28;20715;-60
2024/01/10 05:11:21;;;;;;;53.03;26.10;;;-9.40;99.90;;;-141.84;87.24;19171.66;5053330;28;20229;-61
2024/01/10 05:13:49;;;;;;;54.80;26.93;;;-9.40;99.90;;;-141.84;86.69;19051.78;5053707;28;20238;-60
2024/01/10 05:16:18;;;;;;;56.00;27.60;;;-9.40;99.90;;;-141.84;85.87;18860.78;5046495;28;20228;-60
2024/01/10 05:18:47;;;;;;;48.37;25.73;;;-9.30;99.90;;;-141.84;85.48;18690.09;5053956;28;20689;-60
2024/01/10 05:21:16;;;;;;;56.00;26.43;;;-9.40;99.90;;;-141.84;85.91;18698.22;5053619;28;20221;-61
2024/01/10 05:23:44;;;;;;;58.10;28.90;;;-9.40;99.90;;;-141.84;86.41;18842.50;5053322;28;20280;-61
2024/01/10 05:26:12;;;;;;;55.10;27.93;;;-9.40;99.90;;;-141.84;86.26;18956.28;5053159;28;20682;-61
2024/01/10 05:28:41;;;;;;;51.97;26.80;;;-9.40;99.90;;;-141.84;85.95;18824.22;5053183;28;20324;-60
2024/01/10 05:31:09;;;;;;;49.53;27.17;;;-9.40;99.90;;;-141.84;85.52;18730.75;5053292;28;20207;-60
2024/01/10 05:33:37;;;;;;;49.37;26.27;;;-9.50;99.90;;;-141.84;85.34;18659.63;5045791;28;20210;-60
2024/01/10 05:36:11;;;;;;;52.07;26.97;;;-9.50;99.90;;;-141.84;86.21;18763.25;5052644;28;20303;-60
2024/01/10 05:38:40;;;;;;;56.53;27.93;;;-9.50;99.90;;;-141.84;86.47;18948.16;5052841;28;20298;-61
2024/01/10 05:41:08;;;;;;;51.33;26.53;;;-9.50;99.90;;;-141.84;86.77;18942.06;5050826;28;20276;-60
2024/01/10 05:43:36;;;;;;;48.97;26.23;;;-9.50;99.90;;;-141.84;86.11;18826.25;5053093;28;20324;-60
2024/01/10 05:46:05;;;;;;;53.10;26.77;;;-9.40;99.90;;;-141.84;85.70;18736.84;5053071;28;20537;-61
2024/01/10 05:48:34;;;;;;;52.73;26.50;;;-9.40;99.90;;;-141.84;84.30;18592.59;5048045;28;20224;-60
2024/01/10 05:51:03;;;;;;;48.60;25.57;;;-9.30;99.90;;;-141.84;83.08;18411.75;5052602;28;20283;-60
2024/01/10 05:53:32;;;;;;;54.13;27.03;;;-9.20;99.90;;;-141.84;83.36;18430.06;5052485;28;20637;-60
2024/01/10 05:56:01;;;;;;;48.33;26.80;;;-9.20;99.90;;;-141.84;83.66;18432.09;5052738;28;20269;-60
2024/01/10 05:58:29;;;;;;;56.07;27.67;;;-9.20;99.90;;;-141.84;84.07;18468.66;5052566;28;20240;-59
2024/01/10 06:00:58;;;;;;;53.07;26.43;;;-9.30;99.90;;;-141.84;83.21;18401.59;5053322;28;20206;-59
2024/01/10 06:03:26;;;;;;;56.20;27.53;;;-9.20;99.90;;;-141.84;81.73;18308.16;5048227;28;20324;-61
2024/01/10 06:05:54;;;;;;;55.27;27.57;;;-9.20;99.90;;;-141.84;82.64;18385.34;5047075;28;20228;-61
2024/01/10 06:08:25;;;;;;;51.63;25.17;;;-9.30;99.90;;;-141.84;82.51;18344.72;5051444;28;20306;-61
2024/01/10 06:10:55;;;;;;;50.90;26.43;;;-9.30;99.90;;;-141.84;83.50;18385.34;5051711;28;20224;-61
2024/01/10 06:13:23;;;;;;;53.77;26.83;;;-9.30;99.90;;;-141.84;83.19;18407.69;5050947;28;20669;-60
2024/01/10 06:15:51;;;;;;;53.30;27.00;;;-9.40;99.90;;;-141.84;83.87;18432.09;5045158;28;20662;-60
2024/01/10 06:18:20;;;;;;;55.97;27.63;;;-9.50;99.90;;;-141.84;83.44;18434.13;5048413;28;20576;-60
2024/01/10 06:20:48;;;;;;;51.07;26.87;;;-9.40;99.90;;;-141.84;83.61;18421.91;5052042;28;20220;-60
2024/01/10 06:23:16;;;;;;;51.03;27.50;;;-9.50;99.90;;;-141.84;84.33;18491.00;5052275;28;20311;-60
2024/01/10 06:25:45;;;;;;;58.47;26.80;;;-9.50;99.90;;;-141.84;84.95;18578.38;5048207;28;20584;-60
2024/01/10 06:28:14;;;;;;;53.37;26.03;;;-9.60;99.90;;;-141.84;85.65;18710.44;5051485;28;20690;-60
2024/01/10 06:30:43;;;;;;;49.73;27.57;;;-9.60;99.90;;;-141.84;85.71;18787.63;5051174;28;20225;-59
2024/01/10 06:33:11;;;;;;;54.77;27.63;;;-9.50;99.90;;;-141.84;84.84;18688.06;5051737;28;20226;-60
2024/01/10 06:35:39;;;;;;;54.80;27.30;;;-9.50;99.90;;;-141.84;83.47;18458.50;5051911;28;20735;-60
2024/01/10 06:38:08;;;;;;;50.20;26.60;;;-9.40;99.90;;;-141.84;82.33;18389.41;5051984;28;20228;-59
2024/01/10 06:40:36;;;;;;;53.63;27.60;;;-9.40;99.90;;;-141.84;81.80;18318.31;5051815;28;20252;-59
2024/01/10 06:43:05;;;;;;;54.83;26.63;;;-9.40;99.90;;;-141.84;82.23;18360.97;5046764;28;20212;-59
2024/01/10 06:45:35;;;;;;;51.63;26.23;;;-9.50;99.90;;;-141.84;82.96;18417.84;5051966;28;20288;-58
2024/01/10 06:48:03;;;;;;;53.67;28.17;;;-9.50;99.90;;;-141.84;83.41;18432.09;5050981;28;20302;-61
2024/01/10 06:50:31;;;;;;;48.97;26.07;;;-9.50;99.90;;;-141.84;83.15;18436.16;5051410;28;20228;-58
2024/01/10 06:53:00;;;;;;;58.87;28.07;;;-9.50;99.90;;;-141.84;83.41;18405.66;5051311;28;20221;-60
2024/01/10 06:55:29;;;;;;;51.73;26.43;;;-9.50;99.90;;;-141.84;83.56;18440.22;5051254;28;20279;-59
2024/01/10 06:57:57;;;;;;;54.30;28.07;;;-9.60;99.90;;;-141.84;83.58;18452.41;5051813;28;20217;-59
2024/01/10 07:00:26;;;;;;;49.13;26.70;;;-9.50;99.90;;;-141.84;83.62;18423.94;5047695;28;20221;-59
2024/01/10 07:02:55;;;;;;;58.23;28.30;;;-9.60;99.90;;;-141.84;84.05;18484.91;5050743;28;20218;-59
2024/01/10 07:05:24;;;;;;;52.90;27.60;;;-9.70;99.90;;;-141.84;84.62;18533.66;5046240;28;20225;-58
2024/01/10 07:07:53;;;;;;;53.17;26.60;;;-9.70;99.90;;;-141.84;83.84;18493.03;5050288;28;20319;-60
2024/01/10 07:10:24;;;;;;;57.37;27.53;;;-9.60;99.90;;;-141.84;83.01;18444.28;5038742;28;20219;-59
2024/01/10 07:12:52;;;;;;;53.77;26.63;;;-9.50;99.90;;;-141.84;82.49;18334.56;5046071;28;20193;-60
2024/01/10 07:15:21;;;;;;;54.13;26.83;;;-9.50;99.90;;;-141.84;82.20;18399.56;5049281;28;20225;-62
2024/01/10 07:17:49;;;;;;;51.20;26.17;;;-9.50;99.90;;;-141.84;82.44;18367.06;5046015;28;20247;-61
2024/01/10 07:20:18;;;;;;;49.23;26.37;;;-9.50;99.90;;;-141.84;82.37;18358.94;5051302;28;20217;-60
2024/01/10 07:22:49;;;;;;;52.80;26.70;;;-9.50;99.90;;;-141.84;82.62;18397.53;5050919;28;20225;-60
2024/01/10 07:25:17;;;;;;;51.67;26.60;;;-9.50;99.90;;;-141.84;82.58;18373.16;5051117;28;20655;-60
2024/01/10 08:05:54;;;;;;;58.30;32.17;;;-9.70;99.90;;;-141.84;85.07;18651.50;5134382;27;20593;-59
2024/01/10 08:08:22;;;;;;;55.00;29.10;;;-9.00;99.90;;;-141.84;83.08;18513.34;5108004;28;20226;-61
2024/01/10 08:10:50;;;;;;;55.93;29.17;;;-8.90;99.90;;;-141.84;81.27;18346.75;5108515;28;20250;-61
2024/01/10 08:13:19;;;;;;;49.53;27.70;;;-8.80;99.90;;;-141.84;78.52;18257.38;5108673;28;20207;-61
2024/01/10 08:15:47;;;;;;;55.80;28.57;;;-8.60;99.90;;;-141.84;78.05;18230.94;5100488;28;21483;-60
2024/01/10 08:18:15;;;;;;;52.97;27.40;;;-8.60;99.90;;;-141.84;78.04;18241.13;5108899;28;20303;-61
2024/01/10 08:20:44;;;;;;;53.33;26.80;;;-8.50;99.90;;;-141.84;77.17;18222.81;5109587;28;20615;-60
2024/01/10 08:23:13;;;;;;;52.53;28.63;;;-8.40;99.90;;;-141.84;76.87;18232.97;5108580;28;20269;-61
2024/01/10 08:25:43;;;;;;;48.13;25.63;;;-8.30;99.90;;;-141.84;76.72;18245.19;5104336;28;20587;-60
2024/01/10 08:28:13;;;;;;;54.27;28.90;;;-8.30;99.90;;;-141.84;75.53;18224.84;5104477;28;20239;-61
2024/01/10 08:30:41;;;;;;;50.03;27.23;;;-8.20;99.90;;;-141.84;75.11;18265.50;5108404;28;20680;-60
2024/01/10 08:33:09;;;;;;;48.53;27.10;;;-8.30;99.90;;;-141.84;74.91;18237.06;5101180;28;20659;-61
2024/01/10 08:35:38;;;;;;;50.30;26.70;;;-8.20;99.90;;;-141.84;74.12;18271.59;5108402;28;20230;-60
2024/01/10 08:38:07;;;;;;;49.00;27.00;;;-8.10;99.90;;;-141.84;73.83;18237.06;5110088;28;20235;-61
2024/01/10 08:40:37;;;;;;;52.77;29.07;;;-8.00;99.90;;;-141.84;73.71;18249.25;5109461;28;20228;-62
2024/01/10 08:43:06;;;;;;;53.87;28.00;;;-7.90;99.90;;;-141.84;72.90;18271.59;5100769;28;20721;-61
2024/01/10 08:45:34;;;;;;;47.87;27.00;;;-7.80;99.90;;;-141.84;72.62;18257.38;5088040;28;20227;-60
2024/01/10 08:48:02;;;;;;;50.07;27.63;;;-7.70;99.90;;;-141.84;73.01;18283.78;5098184;28;20284;-58
2024/01/10 08:50:33;;;;;;;51.60;26.13;;;-7.70;99.90;;;-141.84;72.85;18291.91;5088905;28;20219;-60
2024/01/10 08:53:03;;;;;;;55.20;27.73;;;-7.70;99.90;;;-141.84;73.17;18265.50;5102064;28;20265;-56
2024/01/10 08:55:33;;;;;;;52.17;27.33;;;-7.60;99.90;;;-141.84;72.70;18261.44;5098302;28;20245;-58
2024/01/10 08:58:04;;;;;;;52.53;27.73;;;-7.50;99.90;;;-141.84;72.02;18245.19;5103273;28;20699;-57
2024/01/10 09:00:32;;;;;;;53.47;26.93;;;-7.40;99.90;;;-141.84;70.99;18289.88;5093715;28;20235;-56
2024/01/10 09:03:01;;;;;;;49.13;27.23;;;-7.20;99.90;;;-141.84;69.69;18281.75;5095400;28;20707;-57
2024/01/10 09:05:29;;;;;;;49.00;26.70;;;-6.80;99.90;;;-141.84;68.68;18224.84;5089838;28;20227;-61
2024/01/10 09:07:58;;;;;;;47.27;27.37;;;-6.70;99.90;;;-141.84;67.34;18304.09;5081457;28;20231;-60
2024/01/10 09:10:27;;;;;;;44.50;25.50;;;-6.70;99.90;;;-141.84;66.89;18285.81;5083512;28;20292;-61
2024/01/10 09:13:00;;;;;;;48.40;27.33;;;-6.70;99.90;;;-141.84;65.91;18265.50;5084635;28;20193;-61
2024/01/10 09:15:29;;;;;;;55.67;27.13;;;-6.50;99.90;;;-141.84;65.53;18283.78;5075390;28;20657;-59
2024/01/10 09:17:58;;;;;;;52.90;27.87;;;-6.50;99.90;;;-141.84;66.26;18273.63;5079976;28;20214;-61
2024/01/10 09:20:26;;;;;;;53.50;28.73;;;-6.70;99.90;;;-141.84;66.41;18295.97;5080622;28;20217;-62
2024/01/10 09:22:54;;;;;;;47.07;26.50;;;-6.70;99.90;;;-141.84;66.48;18269.56;5093194;28;20246;-61
2024/01/10 09:25:23;;;;;;;50.40;28.33;;;-6.70;99.90;;;-141.84;65.02;18281.75;5093094;28;20200;-60
2024/01/10 09:27:51;;;;;;;46.33;25.53;;;-6.60;99.90;;;-141.84;65.35;18291.91;5093717;28;20225;-61
2024/01/10 09:30:19;;;;;;;49.33;25.80;;;-6.50;99.90;;;-141.84;65.93;18295.97;5092102;28;20232;-62
2024/01/10 09:32:49;;;;;;;48.97;27.67;;;-6.50;99.90;;;-141.84;66.77;18304.09;5083775;28;20226;-61
2024/01/10 09:35:18;;;;;;;51.33;26.53;;;-6.40;99.90;;;-141.84;66.67;18277.69;5084779;28;20222;-61
2024/01/10 09:37:46;;;;;;;51.07;28.07;;;-6.30;99.90;;;-141.84;65.21;18293.94;5084585;28;20279;-61
2024/01/10 09:40:17;;;;;;;51.83;26.70;;;-6.20;99.90;;;-141.84;64.20;18302.06;5092657;28;20200;-59
2024/01/10 09:42:47;;;;;;;50.00;27.73;;;-6.10;99.90;;;-141.84;64.24;18310.19;5083840;28;20202;-60
2024/01/10 09:45:19;;;;;;;48.23;26.70;;;-6.10;99.90;;;-141.84;62.60;18306.13;5092459;28;20706;-61
2024/01/10 09:47:55;;;;;;;49.87;26.37;;;-6.00;99.90;;;-141.84;63.11;18324.41;5088787;28;20723;-60
2024/01/10 09:50:25;;;;;;;51.33;27.20;;;-6.00;99.90;;;-141.84;63.42;18289.88;5092662;28;20225;-60
2024/01/10 09:53:03;;;;;;;47.17;27.13;;;-5.90;99.90;;;-141.84;63.61;18320.34;5092764;28;20220;-61
2024/01/10 09:55:38;;;;;;;49.90;26.37;;;-5.80;99.90;;;-141.84;63.17;18306.13;5088745;28;20224;-59
2024/01/10 09:58:08;;;;;;;48.57;26.03;;;-5.80;99.90;;;-141.84;63.15;18310.19;5088533;28;20705;-60
2024/01/10 10:00:39;;;;;;;46.77;26.80;;;-5.80;99.90;;;-141.84;62.78;18326.44;5083982;28;20242;-59
2024/01/10 10:03:12;;;;;;;50.63;28.53;;;-5.70;99.90;;;-141.84;61.86;18316.28;5084218;28;20894;-60
2024/01/10 10:05:42;;;;;;;47.03;27.00;;;-5.50;99.90;;;-141.84;58.83;18302.06;5091938;28;20229;-60
2024/01/10 10:08:14;;;;;;;44.93;25.63;;;-5.20;99.90;;;-141.84;58.87;18322.38;5092360;28;20226;-61
2024/01/10 10:10:44;;;;;;;51.03;28.37;;;-5.00;99.90;;;-141.84;59.62;18302.06;5092800;28;20392;-58
2024/01/10 10:13:26;;;;;;;46.67;27.00;;;-5.10;99.90;;;-141.84;60.63;18320.34;5090838;28;20193;-61
2024/01/10 10:16:01;;;;;;;48.20;26.30;;;-5.10;99.90;;;-141.84;60.25;18298.00;5086181;28;20205;-60
2024/01/10 10:18:32;;;;;;;46.33;26.90;;;-5.20;99.90;;;-141.84;59.79;18316.28;5090996;28;20229;-61
2024/01/10 10:21:10;;;;;;;49.70;26.90;;;-5.20;99.90;;;-141.84;59.47;18310.19;5091919;28;20219;-62
2024/01/10 10:23:40;;;;;;;47.27;26.20;;;-5.20;99.90;;;-141.84;59.25;18320.34;5092153;28;20228;-61
2024/01/10 10:26:19;;;;;;;47.30;27.00;;;-5.10;99.90;;;-141.84;58.58;18338.63;5086335;28;20222;-61
2024/01/10 10:28:48;;;;;;;50.23;26.70;;;-5.00;99.90;;;-141.84;58.94;18338.63;5092025;28;20223;-60
2024/01/10 10:31:19;;;;;;;46.63;27.20;;;-5.00;99.90;;;-141.84;59.96;18328.47;5092694;28;20247;-59
2024/01/10 10:33:50;;;;;;;46.97;26.10;;;-5.10;99.90;;;-141.84;60.54;18293.94;5092570;28;20218;-59
2024/01/10 10:36:20;;;;;;;45.67;26.87;;;-5.00;99.90;;;-141.84;59.31;18332.53;5091303;28;20236;-59
2024/01/10 10:38:49;;;;;;;43.20;24.67;;;-4.80;99.90;;;-141.84;57.84;18289.88;5083328;28;20232;-57